Track Белозеров Юрий

Time Latitude Longitude Accuracy (66% radius in meters) Altitude (meters) Speed (km/hour) Bearing (degrees) Battery (%) GPS flag
12:03:25 56.387532 43.737430 24.5 62.3 2.5965585708618 321.38000488281 3 1 delete
12:03:09 56.387445 43.737250 9 11.9 0 203.66000366211 3 1 delete
12:02:58 56.387462 43.737282 17 27.7 0 200.41000366211 3 1 delete
12:02:47 56.387462 43.737282 10 27.7 0 200.41000366211 3 1 delete
12:02:36 56.387462 43.737282 19 27.7 0 200.41000366211 3 1 delete
12:02:25 56.387515 43.737333 9 39.9 0 200.41000366211 3 1 delete
12:02:23 56.387643 43.737443 19 73.1 2.442307472229 171.25 3 1 delete
12:02:13 56.387785 43.737542 17 124.3 0 153.91000366211 3 1 delete
12:02:01 56.387785 43.737542 9 124.3 0 153.91000366211 3 1 delete
12:01:50 56.387785 43.737542 11 124.3 0 153.91000366211 3 1 delete
12:01:39 56.387787 43.737533 18 136.4 0 153.91000366211 3 1 delete
12:01:27 56.387795 43.737508 10 151.5 0 153.91000366211 3 1 delete
12:01:16 56.387797 43.737478 10 163 0 188.71000671387 3 1 delete
12:01:04 56.387797 43.737478 10 163 0 188.71000671387 3 1 delete
12:01:01 56.387785 43.737465 9 161.3 0 188.71000671387 3 1 delete
12:00:53 56.387697 43.737372 18 136.4 0 188.71000671387 3 1 delete
12:00:40 56.387697 43.737372 18 136.4 0 188.71000671387 3 1 delete
12:00:29 56.387697 43.737372 11 136.4 0 188.71000671387 3 1 delete
12:00:25 56.387697 43.737372 9 136.4 0 188.71000671387 3 1 delete
12:00:19 56.387580 43.737312 8 64 0 188.71000671387 3 1 delete
12:00:07 56.387580 43.737312 8 64 0 188.71000671387 3 1 delete
11:59:56 56.387580 43.737312 17 64 0 188.71000671387 3 1 delete
11:59:45 56.387580 43.737312 9 64 0 188.71000671387 3 1 delete
11:59:34 56.387580 43.737312 9 64 0 188.71000671387 3 1 delete
11:59:23 56.387580 43.737312 9 64 0 188.71000671387 3 1 delete
11:59:06 56.387580 43.737312 16 64 0 188.71000671387 3 1 delete
11:58:50 56.387580 43.737312 9 64 0 188.71000671387 3 1 delete
11:58:39 56.387580 43.737312 18 64 0 188.71000671387 3 1 delete
11:58:23 56.387580 43.737312 10 64 0 188.71000671387 3 1 delete
11:58:02 56.387580 43.737312 10 64 0 188.71000671387 3 1 delete
11:57:29 56.387580 43.737312 10 64 0 188.71000671387 3 1 delete
11:57:09 56.387580 43.737312 8 64 0 188.71000671387 3 1 delete
11:56:58 56.387580 43.737312 9 64 0 188.71000671387 3 1 delete
11:56:47 56.387580 43.737312 10 64 0 188.71000671387 3 1 delete
11:56:36 56.387580 43.737312 22 64 0 188.03999328613 3 1 delete
11:56:23 56.387580 43.737312 9 64 0 188.03999328613 3 1 delete
11:56:08 56.387580 43.737312 15 64 0 188.03999328613 3 1 delete
11:55:57 56.387580 43.737312 9 64 0 188.03999328613 3 1 delete
11:55:46 56.387580 43.737312 9 64 0 188.03999328613 3 1 delete
11:55:34 56.387580 43.737312 9 64 0 188.03999328613 3 1 delete
11:55:22 56.387580 43.737312 9 64 0 188.03999328613 3 1 delete
11:55:10 56.387580 43.737312 9 64 0 188.03999328613 3 1 delete
11:55:00 56.387580 43.737312 8 64 0 188.03999328613 3 1 delete
11:54:49 56.387580 43.737312 8 64 0 188.03999328613 3 1 delete
11:54:38 56.387580 43.737312 15 64 0 188.03999328613 3 1 delete
11:54:27 56.387580 43.737312 15 64 0 188.03999328613 3 1 delete
11:54:15 56.387580 43.737312 9 64 0 188.03999328613 3 1 delete
11:54:04 56.387580 43.737312 19 64 0 188.03999328613 3 1 delete
11:53:53 56.387580 43.737312 9 64 0 188.03999328613 3 1 delete
11:53:31 56.387580 43.737312 16 64 0 188.03999328613 3 1 delete